Latest Weather Observations for Bairnsdale

IDV60801

Issued at 1:02 pm EST Wednesday 28 September 2016 (issued every 30 minutes, with the page automatically refreshed every 10 minutes)

About weather observations | Map of weather stations | Latest weather observations for VIC | Other Formats
Station Details ID: 085279 Name: BAIRNSDALE AIRPORT Lat: -37.88 Lon: 147.57 Height: 49.4 m
Data from the previous 72 hours. | See also: Recent months at Bairnsdale
Date/Time
EST
Temp
°C
App
Temp
°C
Dew
Point
°C
Rel
Hum
%
Delta-T
°C
Wind Press
QNH
hPa
Press
MSL
hPa
Rain since
9am
mm
Dir  Spd
km/h
Gust
km/h
Spd
kts
Gust
kts
28/12:00pm 17.8 14.9 6.3 47 5.7 ENE 11 17 6 9 1010.6 1010.6 0.0
28/11:30am 17.3 15.1 6.2 48 5.4 E 7 13 4 7 1011.1 1011.1 0.0
28/11:00am 17.6 15.1 4.6 42 6.2 NNE 7 11 4 6 1011.5 1011.5 0.0
28/10:30am 16.8 14.3 4.5 44 5.8 NNE 7 13 4 7 1012.0 1012.0 0.0
28/10:00am 16.7 14.3 6.8 52 4.9 ENE 9 13 5 7 1012.4 1012.4 0.0
28/09:30am 15.6 13.3 7.6 59 4.0 NNW 9 13 5 7 1012.9 1012.9 0.0
28/09:00am 14.5 11.8 7.5 63 3.5 NW 11 15 6 8 1013.0 1013.0 0.0
28/08:30am 13.1 10.7 8.6 74 2.3 NNW 11 13 6 7 1013.2 1013.2 0.0
28/08:00am 10.9 8.3 7.8 81 1.5 NNW 11 13 6 7 1013.4 1013.4 0.0
28/07:30am 9.3 7.0 7.3 87 0.9 NNW 9 13 5 7 1013.4 1013.4 0.0
28/07:00am 8.1 5.6 6.7 91 0.6 NNW 9 11 5 6 1013.4 1013.4 0.0
28/06:30am 6.8 3.4 5.9 94 0.4 NW 13 17 7 9 1013.3 1013.3 0.0
28/06:00am 4.9 1.2 4.3 96 0.3 NW 13 15 7 8 1013.1 1013.1 0.0
28/05:30am 4.9 0.8 4.5 97 0.2 NW 15 17 8 9 1013.0 1013.0 0.0
28/05:00am 5.1 1.4 4.7 97 0.2 NW 13 15 7 8 1012.8 1012.8 0.0
28/04:30am 4.9 1.6 4.5 97 0.2 NW 11 15 6 8 1012.8 1012.8 0.0
28/04:00am 4.1 0.6 3.5 96 0.2 NW 11 13 6 7 1012.8 1012.8 0.0
28/03:30am 5.6 2.4 5.2 97 0.2 NNW 11 11 6 6 1012.7 1012.7 0.0
28/03:00am 5.9 3.1 5.3 96 0.3 NW 9 13 5 7 1012.7 1012.7 0.0
28/02:30am 6.5 3.5 6.1 97 0.2 NW 11 13 6 7 1012.7 1012.7 0.0
28/02:00am 6.4 3.8 6.0 97 0.2 NNW 9 13 5 7 1012.7 1012.7 0.0
28/01:30am 6.7 4.1 6.1 96 0.3 NW 9 9 5 5 1012.8 1012.8 0.0
28/01:00am 6.8 4.6 6.1 95 0.3 NW 7 9 4 5 1013.1 1013.1 0.0
28/12:30am 7.3 5.2 6.6 95 0.3 NW 7 9 4 5 1013.2 1013.2 0.0
28/12:00am 7.9 5.5 7.0 94 0.4 NW 9 11 5 6 1013.2 1013.2 0.0
 
Date/Time
EST
Temp
°C
App
Temp
°C
Dew
Point
°C
Rel
Hum
%
Delta-T
°C
Wind Press
QNH
hPa
Press
MSL
hPa
Rain since
9am
mm
Dir  Spd
km/h
Gust
km/h
Spd
kts
Gust
kts
27/11:30pm 8.7 6.0 7.2 90 0.7 WNW 11 13 6 7 1013.3 1013.3 0.0
27/11:00pm 9.2 7.0 7.8 91 0.7 W 9 13 5 7 1013.3 1013.3 0.0
27/10:30pm 9.6 7.3 7.5 87 1.0 W 9 13 5 7 1013.2 1013.2 0.0
27/10:00pm 10.0 7.4 7.8 86 1.1 W 11 15 6 8 1013.1 1013.1 0.0
27/09:30pm 10.1 6.8 8.2 88 0.9 WSW 15 20 8 11 1013.2 1013.2 0.0
27/09:00pm 10.9 7.6 8.1 83 1.4 W 15 26 8 14 1013.3 1013.3 0.0
27/08:30pm 11.2 7.5 7.9 80 1.6 WSW 17 24 9 13 1013.0 1013.0 0.0
27/08:00pm 11.8 7.4 7.3 74 2.2 SW 20 28 11 15 1012.8 1012.8 0.0
27/07:30pm 12.0 8.1 6.9 71 2.4 SW 17 24 9 13 1012.6 1012.6 0.0
27/07:00pm 10.8 8.3 6.7 76 1.9 SW 9 13 5 7 1012.2 1012.2 0.0
27/06:30pm 10.5 7.1 5.9 73 2.1 SW 13 15 7 8 1011.8 1011.8 0.0
27/06:00pm 12.4 8.6 5.6 63 3.2 WSW 15 22 8 12 1011.5 1011.5 0.0
27/05:30pm 14.2 10.7 5.6 56 4.1 WSW 13 20 7 11 1011.3 1011.3 0.0
27/05:00pm 14.9 10.5 6.5 57 4.1 WSW 19 24 10 13 1011.0 1011.0 0.0
27/04:30pm 15.2 10.7 6.0 54 4.4 W 19 30 10 16 1010.8 1010.8 0.0
27/04:00pm 15.2 10.0 5.7 53 4.6 W 22 32 12 17 1010.6 1010.6 0.0
27/03:30pm 15.1 8.6 4.8 50 4.8 WSW 28 35 15 19 1010.6 1010.6 0.0
27/03:00pm 15.1 9.6 5.9 54 4.4 SW 24 32 13 17 1010.4 1010.4 0.0
27/02:30pm 13.7 9.1 6.3 61 3.5 SW 20 28 11 15 1010.5 1010.5 0.0
27/02:00pm 13.7 7.9 6.1 60 3.6 WSW 26 33 14 18 1010.6 1010.6 0.0
27/01:30pm 13.9 8.4 6.0 59 3.8 WSW 24 33 13 18 1010.6 1010.6 0.0
27/01:00pm 13.9 8.8 6.0 59 3.8 WSW 22 32 12 17 1010.5 1010.5 0.0
27/12:30pm 13.2 6.8 5.1 58 3.8 WSW 28 39 15 21 1010.6 1010.6 0.0
27/12:00pm 13.3 7.9 6.4 63 3.3 WSW 24 37 13 20 1010.6 1010.6 0.0
27/11:30am 14.2 8.6 7.0 62 3.5 WSW 26 35 14 19 1010.5 1010.5 0.0
27/11:00am 13.3 7.7 7.1 66 3.0 W 26 35 14 19 1010.8 1010.8 0.0
27/10:30am 12.5 7.5 6.3 66 2.9 WSW 22 30 12 16 1010.8 1010.8 0.0
27/10:00am 11.6 6.7 5.3 65 2.9 W 20 30 11 16 1010.6 1010.6 0.0
27/09:30am 11.6 6.4 5.7 67 2.7 W 22 32 12 17 1010.5 1010.5 0.0
27/09:00am 12.3 7.7 6.4 67 2.8 W 20 30 11 16 1010.3 1010.3 9.8
27/08:30am 10.7 6.2 6.3 74 2.1 W 19 24 10 13 1010.2 1010.2 9.8
27/08:00am 9.7 5.2 6.8 82 1.4 W 20 28 11 15 1009.9 1009.9 9.8
27/07:30am 9.2 4.6 6.6 84 1.2 W 20 28 11 15 1009.7 1009.7 9.8
27/07:00am 7.5 4.5 6.1 91 0.6 WNW 11 17 6 9 1009.5 1009.5 9.8
27/06:30am 7.3 3.0 5.1 86 1.0 W 17 22 9 12 1009.4 1009.4 9.8
27/06:00am 7.1 3.7 5.9 92 0.5 WSW 13 17 7 9 1009.1 1009.1 9.8
27/05:30am 7.4 3.3 6.3 93 0.5 WSW 17 22 9 12 1008.8 1008.8 9.4
27/05:00am 7.4 3.3 6.3 93 0.5 SW 17 20 9 11 1008.5 1008.5 8.8
27/04:30am 7.4 4.5 6.3 93 0.5 SW 11 15 6 8 1008.3 1008.4 8.6
27/04:00am 7.6 5.7 6.9 95 0.3 W 6 15 3 8 1008.0 1008.1 8.6
27/03:30am 7.9 4.0 7.0 94 0.4 SW 17 20 9 11 1007.9 1008.0 8.4
27/03:27am 8.0 4.1 7.2 95 0.4 SW 17 20 9 11 1008.0 1008.1 8.4
27/03:07am 8.3 4.0 7.2 93 0.5 WSW 19 28 10 15 1008.2 1008.3 7.4
27/03:00am 8.3 3.9 7.2 93 0.5 WSW 20 28 11 15 1008.7 1008.7 6.4
27/02:30am 8.8 4.7 7.7 93 0.5 WSW 19 24 10 13 1008.6 1008.6 3.8
27/02:00am 8.8 6.2 7.9 94 0.4 WSW 11 17 6 9 1008.7 1008.7 1.8
27/01:30am 9.4 7.6 7.8 90 0.8 SE 7 7 4 4 1008.3 1008.4 0.4
27/01:00am 9.3 8.1 7.9 91 0.7 E 4 6 2 3 1008.7 1008.7 0.2
27/12:30am 9.2 7.8 7.3 88 0.9 ENE 4 7 2 4 1008.9 1008.9 0.2
27/12:00am 9.2 6.5 7.5 89 0.8 NE 11 13 6 7 1009.3 1009.3 0.2
 
Date/Time
EST
Temp
°C
App
Temp
°C
Dew
Point
°C
Rel
Hum
%
Delta-T
°C
Wind Press
QNH
hPa
Press
MSL
hPa
Rain since
9am
mm
Dir  Spd
km/h
Gust
km/h
Spd
kts
Gust
kts
26/11:30pm 9.1 6.8 7.5 90 0.8 NE 9 11 5 6 1009.6 1009.6 0.2
26/11:00pm 9.1 6.8 7.4 89 0.8 NE 9 11 5 6 1009.7 1009.7 0.2
26/10:30pm 9.1 6.4 7.4 89 0.8 NE 11 13 6 7 1010.0 1010.0 0.2
26/10:00pm 9.1 6.7 7.1 87 0.9 NE 9 13 5 7 1010.5 1010.5 0.2
26/09:30pm 9.7 6.9 7.1 84 1.2 NE 11 15 6 8 1010.7 1010.7 0.2
26/09:00pm 9.4 6.7 7.2 86 1.0 ENE 11 13 6 7 1010.9 1010.9 0.2
26/08:30pm 9.1 6.2 6.7 85 1.1 E 11 13 6 7 1011.0 1011.0 0.2
26/08:00pm 9.4 6.9 6.7 83 1.3 E 9 11 5 6 1010.8 1010.8 0.2
26/07:30pm 10.3 8.2 6.6 78 1.7 E 7 9 4 5 1010.9 1010.9 0.2
26/07:00pm 10.4 7.5 6.5 77 1.8 E 11 13 6 7 1010.7 1010.7 0.2
26/06:30pm 10.7 7.8 6.5 75 2.0 E 11 13 6 7 1010.5 1010.5 0.2
26/06:00pm 11.0 8.1 6.4 73 2.2 E 11 13 6 7 1010.4 1010.4 0.2
26/05:30pm 12.3 9.0 6.4 67 2.8 E 13 19 7 10 1010.3 1010.3 0.2
26/05:00pm 13.1 10.8 7.3 68 2.8 SE 9 11 5 6 1010.2 1010.2 0.2
26/04:30pm 13.3 11.0 7.5 68 2.8 ESE 9 13 5 7 1010.1 1010.1 0.2
26/04:00pm 14.2 11.5 7.5 64 3.3 ENE 11 15 6 8 1010.0 1010.0 0.2
26/03:30pm 13.6 11.8 7.2 65 3.1 ESE 6 13 3 7 1010.3 1010.3 0.0
26/03:00pm 14.3 11.2 5.4 55 4.2 ENE 11 19 6 10 1010.0 1010.0 0.0
26/02:30pm 14.7 12.0 5.5 54 4.4 SSE 9 15 5 8 1010.1 1010.1 0.0
26/02:00pm 15.0 11.9 3.8 47 5.1 S 9 13 5 7 1010.5 1010.5 0.0
26/01:30pm 15.0 12.8 5.2 52 4.6 S 6 9 3 5 1010.7 1010.7 0.0
26/01:00pm 15.2 11.4 4.0 47 5.2 SSW 13 20 7 11 1010.9 1010.9 0.0
26/12:30pm 14.8 10.7 4.2 49 4.9 SSW 15 26 8 14 1011.2 1011.2 0.0
26/12:00pm 15.4 12.1 4.5 48 5.1 SW 11 19 6 10 1011.5 1011.5 0.0
26/11:30am 15.5 12.3 3.0 43 5.7 WNW 9 17 5 9 1011.7 1011.7 0.0
26/11:00am 15.4 12.3 3.5 45 5.4 WNW 9 17 5 9 1012.1 1012.1 0.0
26/10:30am 15.0 11.8 3.2 45 5.3 WNW 9 19 5 10 1012.4 1012.4 0.0
26/10:00am 15.0 12.0 6.0 55 4.3 NW 11 19 6 10 1012.6 1012.6 0.0
26/09:30am 13.2 10.2 5.9 61 3.5 NNW 11 15 6 8 1012.9 1012.9 0.0
26/09:00am 12.6 10.1 6.4 66 3.0 NNW 9 15 5 8 1013.1 1013.1 0.0
26/08:30am 11.0 8.0 6.2 72 2.2 NNW 11 15 6 8 1013.3 1013.3 0.0
26/08:00am 8.6 5.9 5.7 82 1.3 NNW 9 13 5 7 1013.6 1013.6 0.0
26/07:30am 8.0 4.5 5.3 83 1.2 NW 13 17 7 9 1013.8 1013.8 0.0
26/07:00am 5.8 2.0 4.1 89 0.7 NW 13 17 7 9 1013.8 1013.8 0.0
26/06:30am 5.0 0.7 3.5 90 0.6 NW 15 19 8 10 1013.8 1013.8 0.0
26/06:00am 4.5 0.2 3.3 92 0.5 NW 15 19 8 10 1013.6 1013.6 0.0
26/05:30am 4.0 0.4 2.7 91 0.5 NW 11 13 6 7 1013.4 1013.4 0.0
26/05:00am 4.1 0.1 2.9 92 0.5 WNW 13 15 7 8 1013.3 1013.3 0.0
26/04:30am 4.1 0.1 2.8 91 0.5 WNW 13 15 7 8 1013.2 1013.2 0.0
26/04:00am 4.5 0.2 3.0 90 0.6 NW 15 17 8 9 1013.2 1013.2 0.0
26/03:30am 4.9 0.6 3.4 90 0.6 NW 15 19 8 10 1013.3 1013.3 0.0
26/03:00am 4.8 0.8 3.1 89 0.7 NW 13 17 7 9 1013.2 1013.2 0.0
26/02:30am 5.0 1.0 3.0 87 0.8 NW 13 15 7 8 1013.3 1013.3 0.0
26/02:00am 5.6 1.3 3.3 85 1.0 NW 15 19 8 10 1013.5 1013.5 0.0
26/01:30am 5.6 1.3 3.4 86 0.9 NW 15 19 8 10 1013.8 1013.8 0.0
26/01:00am 5.5 1.6 3.5 87 0.8 NW 13 15 7 8 1014.0 1014.0 0.0
26/12:30am 5.5 2.3 3.3 86 0.9 NNW 9 11 5 6 1014.2 1014.2 0.0
26/12:00am 7.0 3.5 3.6 79 1.4 W 11 13 6 7 1014.2 1014.2 0.0
 
Date/Time
EST
Temp
°C
App
Temp
°C
Dew
Point
°C
Rel
Hum
%
Delta-T
°C
Wind Press
QNH
hPa
Press
MSL
hPa
Rain since
9am
mm
Dir  Spd
km/h
Gust
km/h
Spd
kts
Gust
kts
25/11:30pm 7.5 3.6 3.6 76 1.7 W 13 17 7 9 1014.2 1014.2 0.0
25/11:00pm 8.0 3.4 3.7 74 1.9 W 17 20 9 11 1014.1 1014.1 0.0
25/10:30pm 7.7 2.7 3.6 75 1.8 WSW 19 22 10 12 1014.1 1014.1 0.0
25/10:00pm 7.0 2.8 3.6 79 1.4 WSW 15 19 8 10 1013.9 1013.9 0.0
25/09:30pm 7.2 3.4 4.0 80 1.4 W 13 17 7 9 1013.7 1013.7 0.0
25/09:00pm 7.6 3.8 4.0 78 1.6 WNW 13 17 7 9 1013.5 1013.5 0.0
25/08:30pm 6.9 3.4 3.5 79 1.4 W 11 15 6 8 1013.1 1013.1 0.0
25/08:00pm 7.4 3.6 3.8 78 1.5 NW 13 17 7 9 1012.8 1012.8 0.0
25/07:30pm 8.2 4.4 3.9 74 1.9 WNW 13 17 7 9 1012.4 1012.4 0.0
25/07:00pm 9.4 5.6 4.0 69 2.4 W 13 17 7 9 1012.0 1012.0 0.0
25/06:30pm 10.8 6.7 4.5 65 2.8 W 15 19 8 10 1011.6 1011.6 0.0
25/06:00pm 11.6 6.6 3.6 58 3.6 W 19 30 10 16 1011.1 1011.1 0.0
25/05:30pm 12.8 7.8 4.8 58 3.7 WSW 20 30 11 16 1010.8 1010.8 0.0
25/05:00pm 12.5 5.9 4.0 56 3.8 WSW 28 37 15 20 1010.6 1010.6 0.0
25/04:30pm 12.9 7.6 4.8 58 3.7 WSW 22 33 12 18 1010.3 1010.3 0.0
25/04:00pm 13.2 7.5 4.9 57 3.9 WSW 24 35 13 19 1010.0 1010.0 0.0
25/03:45pm 13.2 5.9 4.4 55 4.0 WSW 32 50 17 27 1009.9 1009.9 0.0
25/03:30pm 13.2 6.0 4.9 57 3.8 WSW 32 46 17 25 1009.8 1009.8 0.0
25/03:00pm 13.7 8.0 5.1 56 4.0 WSW 24 32 13 17 1009.7 1009.7 0.0
25/02:30pm 13.7 7.8 5.6 58 3.8 WSW 26 41 14 22 1009.6 1009.6 0.0
25/02:00pm 13.4 7.8 5.3 58 3.8 SW 24 32 13 17 1009.7 1009.7 0.0
25/01:30pm 13.7 7.7 5.1 56 4.0 WSW 26 32 14 17 1009.5 1009.5 0.0

Other Formats:

Comma delimited format used in spreadsheet applications
http://www.bom.gov.au/fwo/IDV60801/IDV60801.94912.axf

JavaScript Object Notation format (JSON) in row-major order
http://www.bom.gov.au/fwo/IDV60801/IDV60801.94912.json